createdAt,value
2018-04-24T00:05:31.992Z,9.73
2018-04-24T00:11:22.603Z,9.94
2018-04-24T00:17:13.294Z,10.89
2018-04-24T00:23:03.967Z,10.45
2018-04-24T00:28:54.690Z,9.98
2018-04-24T00:34:45.290Z,12.5
2018-04-24T00:40:35.964Z,9.4
2018-04-24T00:46:26.635Z,10.46
2018-04-24T00:52:17.281Z,10.14
2018-04-24T00:58:07.954Z,8.89
2018-04-24T01:03:58.618Z,8.9
2018-04-24T01:09:49.291Z,9.54
2018-04-24T01:15:39.937Z,8.75
2018-04-24T01:21:30.624Z,9.42
2018-04-24T01:27:21.275Z,9.93
2018-04-24T01:33:11.966Z,9.95
2018-04-24T01:39:02.618Z,10.06
2018-04-24T01:44:53.272Z,9.6
2018-04-24T01:50:43.917Z,8.48
2018-04-24T01:56:34.596Z,9.46
2018-04-24T02:02:25.270Z,8.82
2018-04-24T02:08:15.940Z,8.16
2018-04-24T02:14:06.607Z,8.1
2018-04-24T02:19:57.277Z,8.06
2018-04-24T02:25:47.949Z,7.95
2018-04-24T02:31:38.610Z,7.83
2018-04-24T02:37:29.286Z,7.41
2018-04-24T02:43:19.937Z,8.25
2018-04-24T02:49:10.603Z,8.26
2018-04-24T02:55:01.293Z,7.62
2018-04-24T03:00:51.990Z,7.63
2018-04-24T03:06:42.618Z,7.46
2018-04-24T03:12:33.283Z,7.68
2018-04-24T03:18:23.922Z,7.47
2018-04-24T03:24:14.624Z,9.04
2018-04-24T03:30:05.286Z,8.82
2018-04-24T03:35:55.959Z,8.69
2018-04-24T03:41:46.653Z,7.76
2018-04-24T03:47:37.316Z,8.35
2018-04-24T03:53:27.950Z,6.91
2018-04-24T03:59:18.581Z,7.55
2018-04-24T04:05:09.231Z,7.66
2018-04-24T04:10:59.893Z,8.81
2018-04-24T04:16:50.595Z,10.74
2018-04-24T04:22:41.266Z,10.64
2018-04-24T04:28:31.900Z,7.36
2018-04-24T04:34:22.558Z,7.72
2018-04-24T04:40:13.204Z,7.66
2018-04-24T04:46:03.873Z,7.09
2018-04-24T04:51:54.557Z,6.9
2018-04-24T04:57:45.223Z,7.75
2018-04-24T05:03:35.948Z,7.19
2018-04-24T05:09:26.553Z,8.5
2018-04-24T05:15:17.257Z,7.81
2018-04-24T05:21:07.886Z,7.28
2018-04-24T05:26:58.529Z,7.66
2018-04-24T05:32:49.181Z,7.45
2018-04-24T05:38:39.844Z,8.86
2018-04-24T05:44:30.505Z,8.82
2018-04-24T05:50:21.215Z,11.63
2018-04-24T05:56:11.844Z,11.15
2018-04-24T06:02:02.534Z,13.41
2018-04-24T06:07:53.209Z,15.38
2018-04-24T06:13:43.875Z,15.47
2018-04-24T06:19:34.558Z,15.93
2018-04-24T06:25:25.213Z,14.7
2018-04-24T06:31:15.898Z,14.15
2018-04-24T06:37:06.594Z,15.07
2018-04-24T06:42:57.289Z,15.66
2018-04-24T06:48:47.960Z,14.07
2018-04-24T06:54:38.623Z,16.74
2018-04-24T07:00:29.310Z,14.48
2018-04-24T07:06:19.951Z,12.8
2018-04-24T07:12:10.617Z,12.36
2018-04-24T07:18:01.332Z,14.4
2018-04-24T07:23:51.981Z,13.24
2018-04-24T07:29:42.673Z,13.15
2018-04-24T07:35:33.385Z,16.29
2018-04-24T07:41:24.035Z,18.63
2018-04-24T07:47:14.694Z,19.94
2018-04-24T07:53:05.363Z,24.83
2018-04-24T07:58:56.050Z,15.4
2018-04-24T08:04:46.777Z,14.64
2018-04-24T08:10:37.422Z,14.72
2018-04-24T08:16:28.190Z,29.81
2018-04-24T08:22:18.867Z,22.98
2018-04-24T08:28:09.527Z,14.18
2018-04-24T08:34:00.265Z,12.7
2018-04-24T08:39:50.932Z,12.75
2018-04-24T08:45:41.585Z,10.89
2018-04-24T08:51:32.271Z,12.71
2018-04-24T08:57:23.048Z,11.15
2018-04-24T09:03:13.692Z,11.43
2018-04-24T09:09:04.406Z,9.79
2018-04-24T09:14:55.072Z,8.41
2018-04-24T09:20:45.796Z,8.67
2018-04-24T09:26:36.518Z,7.96
2018-04-24T09:32:27.196Z,7.53
2018-04-24T09:38:17.934Z,6.53
2018-04-24T09:44:08.662Z,6.61
2018-04-24T09:49:59.424Z,8.81
2018-04-24T09:55:50.079Z,7.62
2018-04-24T10:01:40.826Z,7.45
2018-04-24T10:07:31.554Z,7.45
2018-04-24T10:13:22.240Z,7.11
2018-04-24T10:19:12.962Z,5.96
2018-04-24T10:25:03.674Z,6.54
2018-04-24T10:30:54.388Z,6.66
2018-04-24T10:36:45.075Z,6.59
2018-04-24T10:42:35.860Z,7.77
2018-04-24T10:48:26.519Z,5.85
2018-04-24T10:54:17.269Z,6.3
2018-04-24T11:00:07.972Z,5.59
2018-04-24T11:05:58.718Z,6.53
2018-04-24T11:11:49.453Z,5.22
2018-04-24T11:17:40.146Z,5.06
2018-04-24T11:23:30.818Z,5.69
2018-04-24T11:29:21.572Z,4.83
2018-04-24T11:35:12.271Z,6.09
2018-04-24T11:41:02.990Z,4.77
2018-04-24T11:46:53.719Z,4.55
2018-04-24T11:52:44.479Z,4.81
2018-04-24T11:58:35.184Z,4.45
2018-04-24T12:04:25.947Z,4.47
2018-04-24T12:10:16.721Z,4.08
2018-04-24T12:16:07.448Z,3.48
2018-04-24T12:21:58.233Z,4.61
2018-04-24T12:27:49.066Z,3.95
2018-04-24T12:33:39.819Z,4.73
2018-04-24T12:39:30.626Z,4.54
2018-04-24T12:45:21.469Z,4.61
2018-04-24T12:51:12.311Z,4.01
2018-04-24T12:57:03.166Z,3.99
2018-04-24T13:02:53.983Z,3.94
2018-04-24T13:08:44.809Z,5.15
2018-04-24T13:14:35.680Z,4.22
2018-04-24T13:20:26.522Z,4.36
2018-04-24T13:26:17.375Z,3.91
2018-04-24T13:32:08.282Z,4.32
2018-04-24T13:37:59.117Z,4.08
2018-04-24T13:43:49.958Z,4.42
2018-04-24T13:49:40.837Z,4.39
2018-04-24T13:55:31.734Z,4.1
2018-04-24T14:01:22.622Z,3.64
2018-04-24T14:07:13.434Z,3.33
2018-04-24T14:13:04.314Z,3.87
2018-04-24T14:18:55.136Z,3.57
2018-04-24T14:24:45.936Z,4.03
2018-04-24T14:30:36.823Z,4.5
2018-04-24T14:36:27.588Z,4.03
2018-04-24T14:42:18.496Z,4.95
2018-04-24T14:48:09.243Z,4.12
2018-04-24T14:54:00.072Z,5.45
2018-04-24T14:59:50.959Z,4.97
2018-04-24T15:05:41.645Z,4
2018-04-24T15:11:32.431Z,4.35
2018-04-24T15:17:23.232Z,4.54
2018-04-24T15:23:14.071Z,3.95
2018-04-24T15:29:04.784Z,5.08
2018-04-24T15:34:55.565Z,4.84
2018-04-24T15:40:46.324Z,5.45
2018-04-24T15:46:37.096Z,5.02
2018-04-24T15:52:27.870Z,5
2018-04-24T15:58:18.635Z,6.22
2018-04-24T16:04:09.409Z,5.52
2018-04-24T16:10:00.199Z,5.75
2018-04-24T16:15:50.939Z,5.25
2018-04-24T16:21:41.741Z,4.4
2018-04-24T16:27:32.488Z,5.41
2018-04-24T16:33:23.299Z,5.76
2018-04-24T16:39:13.996Z,5.32
2018-04-24T16:45:04.707Z,4.74
2018-04-24T16:50:55.488Z,4.25
2018-04-24T16:56:46.261Z,4.8
2018-04-24T17:02:37.018Z,4.41
2018-04-24T17:08:27.761Z,5.07
2018-04-24T17:14:18.515Z,4.57
2018-04-24T17:20:09.234Z,6.32
2018-04-24T17:26:00.011Z,7.59
2018-04-24T17:31:50.732Z,7.29
2018-04-24T17:37:41.458Z,5.49
2018-04-24T17:43:32.230Z,5.45
2018-04-24T17:49:22.941Z,4.48
2018-04-24T17:55:13.708Z,3.76
2018-04-24T18:01:04.406Z,4.42
2018-04-24T18:06:55.147Z,4.28
2018-04-24T18:12:45.925Z,5.41
2018-04-24T18:18:36.544Z,5.8
2018-04-24T18:24:27.274Z,6.51
2018-04-24T18:30:18.023Z,7.26
2018-04-24T18:36:08.735Z,7.91
2018-04-24T18:41:59.433Z,7.4
2018-04-24T18:47:50.124Z,7.84
2018-04-24T18:53:40.839Z,7.99
2018-04-24T18:59:31.526Z,8.33
2018-04-24T19:05:22.287Z,8.26
2018-04-24T19:11:12.981Z,9.19
2018-04-24T19:17:03.645Z,8.19
2018-04-24T19:22:54.389Z,8.19
2018-04-24T19:28:45.156Z,8.72
2018-04-24T19:34:35.789Z,8.2
2018-04-24T19:40:26.467Z,8.19
2018-04-24T19:46:17.187Z,9.02
2018-04-24T19:52:07.942Z,8.7
2018-04-24T19:57:58.620Z,7.69
2018-04-24T20:03:49.300Z,8.23
2018-04-24T20:09:39.988Z,7.6
2018-04-24T20:15:30.719Z,7.36
2018-04-24T20:21:21.445Z,7.2
2018-04-24T20:27:12.114Z,7.52
2018-04-24T20:33:02.824Z,8.25
2018-04-24T20:38:53.509Z,8.28
2018-04-24T20:44:44.253Z,10.96
2018-04-24T20:50:34.996Z,10.19
2018-04-24T20:56:25.718Z,12.18
2018-04-24T21:02:16.345Z,13.95
2018-04-24T21:08:07.105Z,13.43
2018-04-24T21:13:57.800Z,14.18
2018-04-24T21:19:48.466Z,15.45
2018-04-24T21:25:39.206Z,14.16
2018-04-24T21:31:29.887Z,15.32
2018-04-24T21:37:20.597Z,14.95
2018-04-24T21:43:11.289Z,14.13
2018-04-24T21:49:01.987Z,14.4
2018-04-24T21:54:52.732Z,16.09
2018-04-24T22:00:43.405Z,15.4
2018-04-24T22:06:34.132Z,16.21
2018-04-24T22:12:24.753Z,14.86
2018-04-24T22:18:15.439Z,14.25
2018-04-24T22:24:06.137Z,12.54
2018-04-24T22:29:56.826Z,12.34
2018-04-24T22:35:47.542Z,13.5
2018-04-24T22:41:38.246Z,13.16
2018-04-24T22:47:28.944Z,13.06
2018-04-24T22:53:19.587Z,12.75
2018-04-24T22:59:10.315Z,11.71
2018-04-24T23:05:00.997Z,12.26
2018-04-24T23:10:51.724Z,14.9
2018-04-24T23:16:42.416Z,15.12
2018-04-24T23:22:33.106Z,14.25
2018-04-24T23:28:23.790Z,12.86
2018-04-24T23:34:14.455Z,10.91
2018-04-24T23:40:05.140Z,10.55
2018-04-24T23:45:55.860Z,9.35
2018-04-24T23:51:46.548Z,8.72
2018-04-24T23:57:37.189Z,9.49
